createdAt,value
2018-11-04T00:01:23.984Z,18.60
2018-11-04T00:03:53.909Z,17.20
2018-11-04T00:09:23.180Z,16.00
2018-11-04T00:11:55.535Z,16.17
2018-11-04T00:14:24.528Z,16.87
2018-11-04T00:16:53.551Z,16.17
2018-11-04T00:19:34.852Z,15.53
2018-11-04T00:22:04.004Z,18.13
2018-11-04T00:24:36.132Z,16.17
2018-11-04T00:29:58.252Z,16.80
2018-11-04T00:32:33.094Z,18.23
2018-11-04T00:35:01.993Z,15.07
2018-11-04T00:37:31.890Z,14.53
2018-11-04T00:40:04.460Z,17.40
2018-11-04T00:42:33.356Z,16.40
2018-11-04T00:45:02.238Z,14.20
2018-11-04T00:47:31.092Z,16.00
2018-11-04T00:50:18.172Z,15.53
2018-11-04T00:52:47.042Z,17.23
2018-11-04T00:55:16.176Z,16.30
2018-11-04T00:58:05.935Z,15.70
2018-11-04T01:00:34.820Z,14.97
2018-11-04T01:03:07.630Z,15.77
2018-11-04T01:05:36.504Z,16.13
2018-11-04T01:08:05.528Z,15.93
2018-11-04T01:10:44.225Z,15.27
2018-11-04T01:13:14.165Z,14.80
2018-11-04T01:15:44.095Z,16.37
2018-11-04T01:18:12.966Z,19.07
2018-11-04T01:20:41.898Z,18.13
2018-11-04T01:23:11.849Z,18.30
2018-11-04T01:25:44.412Z,19.53
2018-11-04T01:28:13.312Z,16.17
2018-11-04T01:33:35.787Z,20.00
2018-11-04T01:36:07.918Z,19.53
2018-11-04T01:38:46.582Z,20.07
2018-11-04T01:41:15.538Z,19.57
2018-11-04T01:43:44.437Z,20.10
2018-11-04T01:46:17.316Z,21.47
2018-11-04T01:48:46.216Z,15.60
2018-11-04T01:51:15.083Z,17.03
2018-11-04T01:53:43.949Z,18.87
2018-11-04T01:56:13.944Z,17.20
2018-11-04T01:58:54.992Z,16.80
2018-11-04T02:01:23.880Z,18.80
2018-11-04T02:03:53.802Z,16.90
2018-11-04T02:06:28.733Z,16.13
2018-11-04T02:08:58.668Z,17.97
2018-11-04T02:11:33.232Z,19.27
2018-11-04T02:14:02.109Z,20.53
2018-11-04T02:16:30.967Z,17.90
2018-11-04T02:18:59.883Z,23.03
2018-11-04T02:21:28.825Z,16.93
2018-11-04T02:23:57.764Z,17.33
2018-11-04T02:29:23.931Z,18.67
2018-11-04T02:31:57.792Z,19.27
2018-11-04T02:34:26.785Z,16.87
2018-11-04T02:36:55.671Z,22.07
2018-11-04T02:39:24.551Z,20.33
2018-11-04T02:41:53.425Z,23.80
2018-11-04T02:44:30.527Z,23.23
2018-11-04T02:47:09.167Z,21.90
2018-11-04T02:49:38.041Z,22.33
2018-11-04T02:52:07.042Z,18.73
2018-11-04T02:54:48.463Z,18.17
2018-11-04T02:57:17.436Z,20.30
2018-11-04T02:59:46.420Z,17.33
2018-11-04T03:02:15.300Z,18.47
2018-11-04T03:04:44.210Z,19.23
2018-11-04T03:07:13.074Z,20.00
2018-11-04T03:09:42.003Z,20.17
2018-11-04T03:12:10.877Z,17.30
2018-11-04T03:14:39.779Z,20.43
2018-11-04T03:23:00.727Z,22.90
2018-11-04T03:25:29.724Z,18.10
2018-11-04T03:27:58.608Z,19.37
2018-11-04T03:30:27.494Z,19.20
2018-11-04T03:32:56.408Z,18.90
2018-11-04T03:35:25.265Z,19.53
2018-11-04T03:37:59.685Z,17.03
2018-11-04T03:40:28.688Z,20.60
2018-11-04T03:42:57.720Z,19.13
2018-11-04T03:45:33.048Z,20.20
2018-11-04T03:48:02.444Z,20.43
2018-11-04T03:50:32.058Z,20.10
2018-11-04T03:53:06.263Z,21.27
2018-11-04T03:55:36.666Z,21.97
2018-11-04T03:58:09.856Z,19.27
2018-11-04T04:00:40.380Z,21.07
2018-11-04T04:03:09.291Z,19.77
2018-11-04T04:05:38.169Z,18.80
2018-11-04T04:08:12.619Z,19.30
2018-11-04T04:10:41.665Z,22.20
2018-11-04T04:13:10.723Z,23.30
2018-11-04T04:15:57.966Z,22.10
2018-11-04T04:18:27.178Z,21.40
2018-11-04T04:21:01.293Z,20.63
2018-11-04T04:23:30.184Z,21.30
2018-11-04T04:29:02.830Z,20.47
2018-11-04T04:31:33.736Z,19.00
2018-11-04T04:34:13.401Z,20.40
2018-11-04T04:36:46.047Z,22.10
2018-11-04T04:39:26.933Z,20.50
2018-11-04T04:41:55.812Z,21.47
2018-11-04T04:44:26.754Z,19.30
2018-11-04T04:49:50.810Z,18.73
2018-11-04T04:52:19.711Z,24.27
2018-11-04T04:54:48.573Z,24.10
2018-11-04T04:57:23.810Z,20.20
2018-11-04T04:59:58.596Z,22.97
2018-11-04T05:02:29.540Z,21.37
2018-11-04T05:05:04.182Z,21.93
2018-11-04T05:07:39.572Z,20.40
2018-11-04T05:10:08.468Z,20.90
2018-11-04T05:12:37.329Z,21.90
2018-11-04T05:15:14.308Z,23.47
2018-11-04T05:17:43.196Z,23.43
2018-11-04T05:20:17.579Z,21.00
2018-11-04T05:22:46.464Z,21.03
2018-11-04T05:25:15.317Z,21.33
2018-11-04T05:27:51.879Z,20.93
2018-11-04T05:30:20.732Z,20.47
2018-11-04T05:32:49.656Z,19.43
2018-11-04T05:35:18.528Z,21.73
2018-11-04T05:37:47.410Z,20.17
2018-11-04T05:40:16.289Z,21.53
2018-11-04T05:43:07.213Z,20.43
2018-11-04T05:45:36.139Z,19.47
2018-11-04T05:48:05.018Z,20.13
2018-11-04T05:50:33.908Z,21.53
2018-11-04T05:53:05.111Z,21.67
2018-11-04T05:55:37.831Z,22.27
2018-11-04T05:58:06.710Z,21.47
2018-11-04T06:00:44.004Z,21.87
2018-11-04T06:03:12.878Z,21.07
2018-11-04T06:05:41.763Z,22.70
2018-11-04T06:08:12.706Z,22.50
2018-11-04T06:10:41.546Z,23.33
2018-11-04T06:13:12.541Z,20.20
2018-11-04T06:15:41.408Z,22.07
2018-11-04T06:18:10.272Z,20.20
2018-11-04T06:20:39.159Z,23.20
2018-11-04T06:23:08.030Z,20.03
2018-11-04T06:25:42.642Z,19.33
2018-11-04T06:28:11.531Z,21.73
2018-11-04T06:30:40.380Z,20.97
2018-11-04T06:33:09.241Z,20.97
2018-11-04T06:35:38.156Z,23.17
2018-11-04T06:38:07.040Z,19.37
2018-11-04T06:40:35.947Z,20.17
2018-11-04T06:43:04.974Z,24.60
2018-11-04T06:45:43.610Z,22.40
2018-11-04T06:48:24.348Z,21.57
2018-11-04T06:51:04.497Z,20.87
2018-11-04T06:53:44.564Z,18.53
2018-11-04T06:56:22.976Z,17.97
2018-11-04T06:58:51.915Z,22.30
2018-11-04T07:01:31.831Z,19.60
2018-11-04T07:04:18.026Z,17.07
2018-11-04T07:06:47.311Z,22.03
2018-11-04T07:09:16.565Z,19.63
2018-11-04T07:11:49.890Z,19.17
2018-11-04T07:14:33.016Z,17.27
2018-11-04T07:17:07.579Z,19.93
2018-11-04T07:19:38.488Z,19.80
2018-11-04T07:22:07.399Z,17.07
2018-11-04T07:24:36.353Z,19.67
2018-11-04T07:27:17.600Z,18.33
2018-11-04T07:29:48.606Z,18.17
2018-11-04T07:32:17.695Z,18.53
2018-11-04T07:34:49.538Z,20.27
2018-11-04T07:37:18.441Z,18.47
2018-11-04T07:39:48.374Z,19.33
2018-11-04T07:42:21.322Z,20.13
2018-11-04T07:44:51.226Z,22.40
2018-11-04T07:47:23.970Z,20.57
2018-11-04T07:50:05.951Z,20.83
2018-11-04T07:52:41.563Z,21.03
2018-11-04T07:55:18.197Z,23.23
2018-11-04T07:57:57.723Z,20.23
2018-11-04T08:00:31.456Z,20.27
2018-11-04T08:03:02.423Z,18.80
2018-11-04T08:05:36.512Z,20.80
2018-11-04T08:08:11.800Z,20.73
2018-11-04T08:10:42.820Z,18.50
2018-11-04T08:13:11.718Z,19.53
2018-11-04T08:15:40.601Z,21.50
2018-11-04T08:18:15.367Z,19.73
2018-11-04T08:20:44.255Z,19.13
2018-11-04T08:23:13.147Z,19.90
2018-11-04T08:25:42.092Z,21.60
2018-11-04T08:28:11.005Z,22.50
2018-11-04T08:30:46.346Z,21.47
2018-11-04T08:33:29.741Z,21.17
2018-11-04T08:35:58.911Z,21.73
2018-11-04T08:38:31.235Z,18.63
2018-11-04T08:41:05.324Z,20.47
2018-11-04T08:43:44.297Z,21.83
2018-11-04T08:46:20.281Z,22.10
2018-11-04T08:48:51.215Z,20.70
2018-11-04T08:51:30.116Z,21.13
2018-11-04T08:54:05.448Z,21.17
2018-11-04T08:59:37.568Z,21.43
2018-11-04T09:02:08.520Z,20.37
2018-11-04T09:04:39.450Z,20.43
2018-11-04T09:07:10.325Z,24.27
2018-11-04T09:09:45.441Z,21.47
2018-11-04T09:12:17.630Z,23.33
2018-11-04T09:14:46.595Z,24.37
2018-11-04T09:23:15.157Z,22.17
2018-11-04T09:25:48.238Z,21.97
2018-11-04T09:28:24.564Z,23.97
2018-11-04T09:31:12.957Z,21.60
2018-11-04T09:33:43.931Z,24.23
2018-11-04T09:36:16.193Z,23.23
2018-11-04T09:38:50.106Z,24.73
2018-11-04T09:41:25.926Z,21.80
2018-11-04T09:44:04.818Z,24.53
2018-11-04T09:46:49.933Z,23.87
2018-11-04T09:49:25.685Z,21.00
2018-11-04T09:52:14.313Z,26.97
2018-11-04T09:54:52.962Z,26.30
2018-11-04T09:57:22.943Z,26.40
2018-11-04T09:59:56.531Z,27.43
2018-11-04T10:02:37.754Z,26.47
2018-11-04T10:05:25.276Z,24.73
2018-11-04T10:07:59.916Z,27.67
2018-11-04T10:10:32.289Z,28.47
2018-11-04T10:13:07.315Z,23.03
2018-11-04T10:15:36.301Z,24.87
2018-11-04T10:18:12.317Z,23.80
2018-11-04T10:20:43.683Z,23.00
2018-11-04T10:23:24.112Z,26.33
2018-11-04T10:25:56.462Z,27.23
2018-11-04T10:28:32.582Z,26.83
2018-11-04T10:31:09.129Z,27.63
2018-11-04T10:33:48.547Z,26.33
2018-11-04T10:36:23.443Z,27.53
2018-11-04T10:38:53.278Z,32.03
2018-11-04T10:41:25.337Z,29.33
2018-11-04T10:43:54.269Z,30.93
2018-11-04T10:46:26.504Z,32.17
2018-11-04T10:48:55.424Z,29.83
2018-11-04T10:51:24.310Z,33.17
2018-11-04T10:53:54.284Z,30.80
2018-11-04T10:56:23.269Z,32.93
2018-11-04T10:58:52.239Z,39.97
2018-11-04T11:01:21.059Z,41.03
2018-11-04T11:04:00.388Z,38.97
2018-11-04T11:06:29.264Z,41.03
2018-11-04T11:08:58.140Z,37.83
2018-11-04T11:11:27.062Z,42.00
2018-11-04T11:13:55.954Z,40.30
2018-11-04T11:16:24.873Z,39.37
2018-11-04T11:18:53.756Z,44.50
2018-11-04T11:21:26.539Z,40.33
2018-11-04T11:23:55.565Z,42.90
2018-11-04T11:26:37.230Z,42.40
2018-11-04T11:29:06.318Z,40.43
2018-11-04T11:31:59.068Z,42.37
2018-11-04T11:34:28.118Z,40.50
2018-11-04T11:37:00.752Z,42.33
2018-11-04T11:39:30.918Z,40.70
2018-11-04T11:41:59.799Z,40.23
2018-11-04T11:47:28.254Z,40.30
2018-11-04T11:49:57.222Z,44.00
2018-11-04T11:52:30.158Z,39.80
2018-11-04T11:55:23.254Z,41.43
2018-11-04T11:58:01.783Z,39.70
2018-11-04T12:00:30.816Z,41.53
2018-11-04T12:02:59.709Z,40.77
2018-11-04T12:05:29.606Z,42.43
2018-11-04T12:07:58.515Z,40.63
2018-11-04T12:10:29.469Z,40.70
2018-11-04T12:13:00.472Z,41.73
2018-11-04T12:15:29.390Z,38.10
2018-11-04T12:18:00.331Z,40.73
2018-11-04T12:20:29.264Z,40.60
2018-11-04T12:22:58.217Z,40.93
2018-11-04T12:25:27.113Z,40.33
2018-11-04T12:27:56.021Z,40.67
2018-11-04T12:30:29.964Z,40.80
2018-11-04T12:32:58.914Z,38.40
2018-11-04T12:35:27.820Z,39.47
2018-11-04T12:40:52.335Z,40.30
2018-11-04T12:43:21.316Z,35.97
2018-11-04T12:45:58.493Z,37.87
2018-11-04T12:48:27.372Z,36.30
2018-11-04T12:50:56.255Z,41.70
2018-11-04T12:53:35.707Z,34.87
2018-11-04T12:56:14.477Z,36.10
2018-11-04T12:58:43.375Z,37.80
2018-11-04T13:01:12.289Z,37.87
2018-11-04T13:03:41.167Z,34.87
2018-11-04T13:06:14.144Z,39.43
2018-11-04T13:08:47.160Z,33.47
2018-11-04T13:11:16.073Z,36.00
2018-11-04T13:13:44.970Z,33.57
2018-11-04T13:16:18.054Z,34.93
2018-11-04T13:19:05.028Z,36.87
2018-11-04T13:21:34.909Z,37.07
2018-11-04T13:24:20.044Z,36.03
2018-11-04T13:26:49.120Z,34.23
2018-11-04T13:29:19.020Z,38.37
2018-11-04T13:32:00.209Z,35.43
2018-11-04T13:34:39.760Z,36.37
2018-11-04T13:37:12.220Z,36.40
2018-11-04T13:39:55.834Z,31.43
2018-11-04T13:42:28.836Z,31.10
2018-11-04T13:44:58.831Z,36.87
2018-11-04T13:47:29.700Z,32.90
2018-11-04T13:50:04.062Z,33.47
2018-11-04T13:52:38.358Z,35.57
2018-11-04T13:55:08.295Z,34.37
2018-11-04T13:57:40.620Z,35.77
2018-11-04T14:00:15.236Z,36.73
2018-11-04T14:02:48.761Z,35.47
2018-11-04T14:05:17.824Z,38.50
2018-11-04T14:07:50.779Z,32.07
2018-11-04T14:10:21.901Z,33.60
2018-11-04T14:12:50.925Z,37.57
2018-11-04T14:15:25.936Z,31.23
2018-11-04T14:17:54.910Z,34.07
2018-11-04T14:20:23.910Z,32.10
2018-11-04T14:22:52.931Z,34.73
2018-11-04T14:25:21.865Z,32.20
2018-11-04T14:27:54.411Z,33.10
2018-11-04T14:30:24.383Z,35.90
2018-11-04T14:32:58.040Z,39.30
2018-11-04T14:35:31.876Z,34.93
2018-11-04T14:38:08.276Z,36.87
2018-11-04T14:40:40.361Z,36.27
2018-11-04T14:43:13.902Z,38.57
2018-11-04T14:45:42.854Z,35.10
2018-11-04T14:48:11.674Z,33.43
2018-11-04T14:50:50.896Z,34.57
2018-11-04T14:53:31.950Z,31.77
2018-11-04T14:56:01.944Z,36.60
2018-11-04T14:58:48.523Z,28.10
2018-11-04T15:01:22.217Z,35.00
2018-11-04T15:04:10.871Z,31.77
2018-11-04T15:06:40.849Z,31.00
2018-11-04T15:09:15.011Z,36.00
2018-11-04T15:11:44.918Z,31.43
2018-11-04T15:14:13.820Z,36.97
2018-11-04T15:16:48.485Z,34.27
2018-11-04T15:19:23.981Z,32.70
2018-11-04T15:21:53.017Z,30.73
2018-11-04T15:24:22.006Z,32.77
2018-11-04T15:26:52.547Z,30.50
2018-11-04T15:29:21.610Z,33.07
2018-11-04T15:31:51.192Z,31.63
2018-11-04T15:34:26.328Z,31.90
2018-11-04T15:36:56.602Z,32.77
2018-11-04T15:39:27.315Z,33.97
2018-11-04T15:42:02.148Z,35.83
2018-11-04T15:44:37.576Z,34.27
2018-11-04T15:47:10.275Z,31.90
2018-11-04T15:49:40.290Z,29.90
2018-11-04T15:52:09.823Z,32.97
2018-11-04T15:54:44.509Z,34.07
2018-11-04T15:57:17.586Z,35.47
2018-11-04T15:59:46.624Z,33.03
2018-11-04T16:02:21.146Z,32.40
2018-11-04T16:04:54.453Z,32.57
2018-11-04T16:07:23.386Z,33.20
2018-11-04T16:09:52.293Z,29.20
2018-11-04T16:12:23.295Z,29.67
2018-11-04T16:14:58.342Z,33.57
2018-11-04T16:17:33.549Z,31.27
2018-11-04T16:20:02.510Z,32.53
2018-11-04T16:22:46.304Z,28.83
2018-11-04T16:25:25.666Z,29.57
2018-11-04T16:28:13.318Z,31.07
2018-11-04T16:30:44.298Z,27.10
2018-11-04T16:33:16.753Z,26.63
2018-11-04T16:35:46.693Z,31.27
2018-11-04T16:38:25.802Z,30.37
2018-11-04T16:40:54.760Z,29.37
2018-11-04T16:43:24.801Z,29.27
2018-11-04T16:45:53.649Z,29.47
2018-11-04T16:48:23.609Z,26.80
2018-11-04T16:50:56.426Z,31.93
2018-11-04T16:53:26.411Z,28.07
2018-11-04T16:55:57.371Z,27.33
2018-11-04T16:58:36.391Z,27.10
2018-11-04T17:01:11.175Z,26.47
2018-11-04T17:03:41.100Z,26.20
2018-11-04T17:06:11.049Z,26.27
2018-11-04T17:08:54.987Z,24.13
2018-11-04T17:11:25.594Z,26.80
2018-11-04T17:13:56.723Z,27.87
2018-11-04T17:16:26.201Z,26.80
2018-11-04T17:18:55.651Z,26.30
2018-11-04T17:21:37.192Z,25.77
2018-11-04T17:24:18.453Z,24.83
2018-11-04T17:26:48.108Z,24.83
2018-11-04T17:29:17.305Z,26.57
2018-11-04T17:31:46.523Z,25.87
2018-11-04T17:34:16.144Z,26.07
2018-11-04T17:36:45.653Z,29.73
2018-11-04T17:39:15.183Z,27.87
2018-11-04T17:41:54.059Z,27.10
2018-11-04T17:44:23.670Z,24.73
2018-11-04T17:46:57.138Z,22.67
2018-11-04T17:49:26.581Z,23.23
2018-11-04T17:51:58.175Z,26.87
2018-11-04T17:54:33.633Z,23.60
2018-11-04T17:57:15.081Z,23.30
2018-11-04T17:59:51.032Z,24.13
2018-11-04T18:02:23.940Z,23.83
2018-11-04T18:04:52.929Z,24.67
2018-11-04T18:07:23.796Z,24.37
2018-11-04T18:09:54.203Z,24.00
2018-11-04T18:12:38.017Z,24.00
2018-11-04T18:15:07.564Z,25.70
2018-11-04T18:17:39.998Z,26.37
2018-11-04T18:20:12.583Z,24.63
2018-11-04T18:22:44.931Z,23.13
2018-11-04T18:25:19.418Z,24.07
2018-11-04T18:27:48.369Z,23.53
2018-11-04T18:30:17.824Z,24.57
2018-11-04T18:32:47.145Z,21.67
2018-11-04T18:35:17.080Z,22.00
2018-11-04T18:37:50.260Z,22.40
2018-11-04T18:40:19.652Z,21.57
2018-11-04T18:42:50.656Z,21.53
2018-11-04T18:45:22.834Z,23.90
2018-11-04T18:48:14.763Z,21.00
2018-11-04T18:50:43.693Z,22.03
2018-11-04T18:53:24.690Z,22.67
2018-11-04T18:55:55.603Z,23.43
2018-11-04T18:58:25.565Z,24.73
2018-11-04T19:01:04.841Z,23.00
2018-11-04T19:03:33.845Z,20.67
2018-11-04T19:06:12.995Z,22.30
2018-11-04T19:08:43.045Z,21.17
2018-11-04T19:11:17.449Z,21.17
2018-11-04T19:13:46.316Z,19.70
2018-11-04T19:19:14.402Z,22.83
2018-11-04T19:21:55.476Z,23.20
2018-11-04T19:24:24.529Z,21.00
2018-11-04T19:26:54.452Z,24.70
2018-11-04T19:29:27.313Z,27.10
2018-11-04T19:32:03.745Z,22.43
2018-11-04T19:34:37.136Z,22.47
2018-11-04T19:37:16.359Z,25.23
2018-11-04T19:39:45.278Z,22.53
2018-11-04T19:42:17.896Z,23.20
2018-11-04T19:44:47.793Z,23.13
2018-11-04T19:47:23.055Z,22.40
2018-11-04T19:49:55.162Z,24.30
2018-11-04T19:52:34.381Z,20.97
2018-11-04T19:55:04.481Z,20.37
2018-11-04T19:57:47.203Z,22.77
2018-11-04T20:00:20.081Z,23.23
2018-11-04T20:02:48.996Z,22.67
2018-11-04T20:05:41.826Z,23.30
2018-11-04T20:08:14.978Z,22.70
2018-11-04T20:10:44.904Z,24.80
2018-11-04T20:13:21.248Z,23.93
2018-11-04T20:16:02.528Z,20.73
2018-11-04T20:18:47.201Z,22.50
2018-11-04T20:21:19.495Z,22.47
2018-11-04T20:23:48.438Z,23.20
2018-11-04T20:26:30.088Z,20.30
2018-11-04T20:29:12.580Z,26.00
2018-11-04T20:31:52.246Z,25.07
2018-11-04T20:34:24.725Z,24.03
2018-11-04T20:36:53.752Z,25.97
2018-11-04T20:39:33.599Z,24.40
2018-11-04T20:42:04.561Z,20.00
2018-11-04T20:44:44.856Z,22.40
2018-11-04T20:47:31.389Z,23.43
2018-11-04T20:50:16.844Z,24.10
2018-11-04T20:52:54.088Z,20.20
2018-11-04T20:55:36.391Z,20.43
2018-11-04T20:58:05.525Z,21.03
2018-11-04T21:00:46.554Z,21.67
2018-11-04T21:03:16.613Z,20.43
2018-11-04T21:05:57.966Z,20.00
2018-11-04T21:08:29.310Z,21.70
2018-11-04T21:11:00.227Z,20.03
2018-11-04T21:13:29.803Z,21.67
2018-11-04T21:15:58.960Z,20.20
2018-11-04T21:18:33.586Z,20.10
2018-11-04T21:21:04.507Z,20.50
2018-11-04T21:23:39.577Z,20.20
2018-11-04T21:26:18.704Z,21.63
2018-11-04T21:29:11.243Z,24.17
2018-11-04T21:31:50.425Z,23.90
2018-11-04T21:34:29.469Z,23.67
2018-11-04T21:37:17.024Z,21.90
2018-11-04T21:39:52.261Z,20.53
2018-11-04T21:42:39.500Z,23.30
2018-11-04T21:45:10.266Z,21.60
2018-11-04T21:47:51.543Z,20.43
2018-11-04T21:50:32.254Z,20.73
2018-11-04T21:53:01.241Z,20.07
2018-11-04T21:55:46.796Z,23.80
2018-11-04T21:58:39.643Z,22.80
2018-11-04T22:01:08.582Z,21.63
2018-11-04T22:03:38.685Z,21.87
2018-11-04T22:06:13.740Z,19.50
2018-11-04T22:08:57.442Z,22.57
2018-11-04T22:11:28.014Z,19.60
2018-11-04T22:13:59.757Z,20.17
2018-11-04T22:16:32.602Z,23.37
2018-11-04T22:19:08.403Z,21.77
2018-11-04T22:21:48.443Z,23.03
2018-11-04T22:27:23.251Z,23.57
2018-11-04T22:29:52.465Z,21.07
2018-11-04T22:32:25.233Z,21.67
2018-11-04T22:34:56.820Z,17.83
2018-11-04T22:37:26.288Z,20.63
2018-11-04T22:40:01.472Z,21.93
2018-11-04T22:42:30.507Z,20.03
2018-11-04T22:45:03.813Z,19.23
2018-11-04T22:47:45.826Z,22.13
2018-11-04T22:56:01.030Z,22.27
2018-11-04T22:58:37.973Z,20.70
2018-11-04T23:01:08.947Z,21.07
2018-11-04T23:03:56.410Z,21.67
2018-11-04T23:06:43.396Z,20.87
2018-11-04T23:09:12.415Z,20.80
2018-11-04T23:11:42.470Z,19.87
2018-11-04T23:17:06.035Z,17.80
2018-11-04T23:19:46.934Z,19.07
2018-11-04T23:22:15.918Z,19.13
2018-11-04T23:24:45.044Z,19.83
2018-11-04T23:27:17.507Z,19.47
2018-11-04T23:29:46.378Z,19.10
2018-11-04T23:32:16.355Z,20.40
2018-11-04T23:35:01.214Z,17.17
2018-11-04T23:37:34.810Z,18.23
2018-11-04T23:40:07.312Z,20.93
2018-11-04T23:42:36.381Z,19.60
2018-11-04T23:45:06.016Z,21.37
2018-11-04T23:47:34.997Z,20.70
2018-11-04T23:50:04.168Z,19.13
2018-11-04T23:52:33.050Z,17.43
2018-11-04T23:55:11.141Z,17.80
2018-11-04T23:57:47.016Z,19.20
